Time;durP1;ratioP1;P1;durP2;ratioP2;P2;SDS_P1;SDS_P2;PMS_P1;PMS_P2;Temp;Humidity;BMP_temperature;BMP_pressure;BME280_temperature;BME280_humidity;BME280_pressure;Samples;Min_cycle;Max_cycle;Signal;HPM_P1;HPM_P2
2022/04/18 00:00:23;;;;;;;12.82;3.40;;;;;;;16.59;62.18;100503.03;5064551;28;20776;-81
2022/04/18 00:02:50;;;;;;;14.52;3.03;;;;;;;16.56;62.08;100503.69;5049956;28;20067;-82
2022/04/18 00:05:16;;;;;;;12.93;2.92;;;;;;;16.52;62.41;100491.38;5066593;28;20056;-81
2022/04/18 00:07:43;;;;;;;16.40;3.60;;;;;;;16.56;61.95;100498.03;5067937;28;20080;-81
2022/04/18 00:10:10;;;;;;;11.43;3.33;;;;;;;16.68;62.16;100515.19;5070474;28;20060;-79
2022/04/18 00:12:37;;;;;;;9.27;3.55;;;;;;;16.74;62.05;100516.75;5071300;28;20063;-84
2022/04/18 00:15:05;;;;;;;12.40;3.70;;;;;;;16.63;61.90;100489.94;5055100;28;20077;-83
2022/04/18 00:17:31;;;;;;;9.38;3.97;;;;;;;16.53;62.22;100470.50;5053724;28;20084;-83
2022/04/18 00:19:59;;;;;;;25.40;4.45;;;;;;;16.65;61.82;100486.78;5066751;28;20407;-83
2022/04/18 00:22:26;;;;;;;11.90;3.80;;;;;;;16.79;61.87;100513.81;5055313;28;20128;-77
2022/04/18 00:24:53;;;;;;;12.03;4.30;;;;;;;16.54;62.13;100472.97;5071337;28;20507;-77
2022/04/18 00:27:20;;;;;;;12.63;3.70;;;;;;;16.48;62.26;100485.56;5068859;28;20098;-80
2022/04/18 00:29:47;;;;;;;18.27;4.75;;;;;;;16.54;62.16;100487.06;5072193;28;20121;-80
2022/04/18 00:32:16;;;;;;;10.88;3.65;;;;;;;16.70;62.42;100504.41;5050973;28;20040;-85
2022/04/18 00:34:43;;;;;;;17.70;4.75;;;;;;;16.68;62.08;100497.44;5069068;28;20088;-83
2022/04/18 00:37:16;;;;;;;12.18;4.00;;;;;;;16.69;62.29;100497.13;5072796;28;20066;-85
2022/04/18 00:39:43;;;;;;;13.48;4.03;;;;;;;16.32;61.81;100436.38;5072159;28;20053;-82
2022/04/18 00:42:11;;;;;;;11.43;3.78;;;;;;;16.68;62.14;100484.16;5053516;28;20127;-83
2022/04/18 00:44:38;;;;;;;12.02;4.07;;;;;;;16.55;61.96;100462.56;5072923;28;20048;-82
2022/04/18 00:47:05;;;;;;;13.38;5.22;;;;;;;16.60;61.91;100476.50;5070437;28;20080;-82
2022/04/18 00:49:34;;;;;;;11.27;4.55;;;;;;;16.71;61.79;100489.16;5076701;28;20052;-86
2022/04/18 00:52:03;;;;;;;12.32;4.28;;;;;;;16.52;61.63;100463.19;5076646;28;20487;-83
2022/04/18 00:54:32;;;;;;;15.20;4.72;;;;;;;16.58;61.94;100474.00;5077365;28;20108;-77
2022/04/18 00:56:59;;;;;;;13.77;5.00;;;;;;;16.50;61.99;100466.31;5069206;28;20468;-85
2022/04/18 00:59:27;;;;;;;15.05;5.05;;;;;;;16.61;61.69;100480.16;5070423;28;20059;-86
2022/04/18 01:01:53;;;;;;;13.27;4.60;;;;;;;16.32;61.81;100436.38;5070128;28;20134;-87
2022/04/18 01:04:21;;;;;;;10.98;3.80;;;;;;;16.57;61.68;100482.78;5068320;28;20115;-86
2022/04/18 01:06:48;;;;;;;13.35;4.47;;;;;;;16.35;62.08;100452.66;5053665;28;20135;-88
2022/04/18 01:09:15;;;;;;;10.68;4.07;;;;;;;16.38;61.89;100456.81;5070079;28;20083;-86
2022/04/18 01:11:42;;;;;;;12.90;4.22;;;;;;;16.44;61.77;100466.78;5058546;28;20056;-87
2022/04/18 01:14:09;;;;;;;13.57;4.50;;;;;;;16.43;62.12;100467.94;5072385;28;20070;-87
2022/04/18 01:16:36;;;;;;;14.88;4.32;;;;;;;16.42;61.81;100457.81;5074415;28;20137;-86
2022/04/18 01:19:02;;;;;;;24.27;4.37;;;;;;;16.44;61.83;100469.59;5073040;28;20134;-84
2022/04/18 01:21:29;;;;;;;10.27;3.85;;;;;;;16.45;61.75;100474.09;5070760;28;20072;-83
2022/04/18 01:23:57;;;;;;;13.45;4.80;;;;;;;16.32;62.16;100445.66;5073234;28;20223;-82
2022/04/18 01:29:09;;;;;;;18.55;4.70;;;;;;;16.43;61.69;100467.94;5062850;28;20139;-83
2022/04/18 01:31:38;;;;;;;15.32;4.63;;;;;;;16.27;62.08;100440.16;5070691;28;20090;-82
2022/04/18 01:34:07;;;;;;;12.60;5.30;;;;;;;16.35;61.82;100459.13;5074459;28;20412;-82
2022/04/18 01:36:34;;;;;;;17.08;5.18;;;;;;;16.29;62.00;100457.56;5072451;28;20096;-78
2022/04/18 01:39:01;;;;;;;10.38;4.13;;;;;;;16.18;61.84;100441.25;5070360;28;20139;-79
2022/04/18 01:41:28;;;;;;;16.30;4.27;;;;;;;16.18;61.66;100442.09;5073774;28;20570;-84
2022/04/18 01:43:55;;;;;;;9.45;3.78;;;;;;;16.12;61.77;100443.38;5072890;28;20128;-81
2022/04/18 01:46:21;;;;;;;17.23;4.13;;;;;;;16.08;61.89;100428.25;5070958;28;20125;-83
2022/04/18 01:48:51;;;;;;;13.73;4.00;;;;;;;16.00;62.05;100432.69;5071985;28;20135;-81
2022/04/18 01:51:19;;;;;;;;;;;;;;;16.05;62.01;100448.63;5070175;28;20052;-79
2022/04/18 01:53:47;;;;;;;11.68;3.58;;;;;;;16.13;61.83;100456.28;5074660;28;20016;-84
2022/04/18 01:56:14;;;;;;;16.60;5.03;;;;;;;15.76;62.08;100390.78;5070859;28;20091;-84
2022/04/18 01:58:41;;;;;;;10.38;4.95;;;;;;;16.06;62.17;100445.47;5074385;28;20088;-85
2022/04/18 02:01:08;;;;;;;13.83;4.77;;;;;;;15.94;62.06;100430.31;5071660;28;20086;-85
2022/04/18 02:03:35;;;;;;;13.63;4.95;;;;;;;15.61;61.82;100382.66;5074018;28;20067;-82
2022/04/18 02:06:02;;;;;;;15.40;4.30;;;;;;;15.69;62.22;100390.38;5073471;28;20048;-82
2022/04/18 02:08:29;;;;;;;17.65;5.03;;;;;;;15.74;61.82;100397.84;5073348;28;20127;-83
2022/04/18 02:10:55;;;;;;;14.97;4.90;;;;;;;15.80;61.91;100411.50;5074083;28;20102;-83
2022/04/18 02:13:24;;;;;;;10.97;4.43;;;;;;;15.81;62.22;100409.50;5072239;28;20470;-83
2022/04/18 02:15:51;;;;;;;12.60;4.50;;;;;;;15.73;62.13;100401.84;5072077;28;20414;-83
2022/04/18 02:18:17;;;;;;;20.87;4.47;;;;;;;15.79;62.13;100421.06;5044344;28;20048;-82
2022/04/18 02:20:44;;;;;;;16.60;5.13;;;;;;;15.70;62.30;100399.66;5077343;28;20132;-82
2022/04/18 02:23:11;;;;;;;21.53;5.67;;;;;;;15.62;62.58;100395.56;5068445;28;20087;-83
2022/04/18 02:25:38;;;;;;;9.93;5.10;;;;;;;15.84;62.50;100431.41;5077160;28;20103;-83
2022/04/18 02:28:05;;;;;;;18.43;5.00;;;;;;;15.80;62.37;100428.38;5075049;28;20131;-83
2022/04/18 02:30:32;;;;;;;18.67;5.33;;;;;;;15.83;62.37;100429.75;5076366;28;20045;-83
2022/04/18 02:32:59;;;;;;;15.97;5.07;;;;;;;15.70;62.42;100408.09;5072611;28;20094;-83
2022/04/18 02:35:26;;;;;;;17.70;4.97;;;;;;;15.52;62.52;100382.59;5074245;28;20147;-85
2022/04/18 02:37:54;;;;;;;16.57;5.20;;;;;;;15.81;62.81;100418.78;5060050;28;20109;-84
2022/04/18 02:40:22;;;;;;;25.65;6.22;;;;;;;15.67;62.51;100403.94;5055348;28;20084;-84
2022/04/18 02:42:49;;;;;;;11.70;4.47;;;;;;;15.52;62.45;100385.41;5074142;28;20076;-85
2022/04/18 02:45:18;;;;;;;16.57;4.40;;;;;;;15.64;62.60;100405.34;5069834;28;20084;-82
2022/04/18 02:47:47;;;;;;;14.60;4.78;;;;;;;15.36;62.75;100356.78;5075461;28;20059;-82
2022/04/18 02:50:15;;;;;;;12.68;4.15;;;;;;;15.79;62.51;100423.88;5073757;28;20536;-82
2022/04/18 02:52:42;;;;;;;11.80;4.83;;;;;;;15.62;62.66;100412.44;5072734;28;20171;-82
2022/04/18 02:55:11;;;;;;;11.77;4.50;;;;;;;15.75;62.81;100424.84;5077355;28;20088;-85
2022/04/18 02:57:39;;;;;;;18.67;4.95;;;;;;;15.68;62.37;100411.22;5088609;28;20103;-84
2022/04/18 03:00:08;;;;;;;19.63;4.93;;;;;;;15.63;62.65;100402.88;5093614;28;20044;-84
2022/04/18 03:02:36;;;;;;;11.00;4.67;;;;;;;15.71;62.61;100421.84;5093682;28;20032;-82
2022/04/18 03:05:05;;;;;;;16.27;5.17;;;;;;;15.63;62.31;100405.69;5087714;28;20127;-81
2022/04/18 03:07:33;;;;;;;13.23;5.65;;;;;;;15.67;62.37;100420.81;5084210;28;20075;-81
2022/04/18 03:10:00;;;;;;;15.73;4.40;;;;;;;15.48;62.38;100391.97;5087950;28;20080;-79
2022/04/18 03:12:27;;;;;;;21.67;4.50;;;;;;;15.24;62.33;100358.47;5080483;28;20090;-78
2022/04/18 03:14:54;;;;;;;13.97;4.40;;;;;;;15.54;62.62;100411.22;5071855;28;20546;-77
2022/04/18 03:17:21;;;;;;;18.87;4.47;;;;;;;15.39;62.84;100398.34;5054829;28;20139;-81
2022/04/18 03:19:48;;;;;;;17.87;5.87;;;;;;;15.47;62.85;100410.00;5073058;28;20076;-80
2022/04/18 03:22:15;;;;;;;25.20;5.67;;;;;;;15.29;62.71;100392.13;5056176;28;20089;-77
2022/04/18 03:24:42;;;;;;;14.23;5.57;;;;;;;15.35;62.67;100399.28;5071269;28;20131;-77
2022/04/18 03:27:09;;;;;;;15.93;5.17;;;;;;;15.33;62.49;100396.81;5055687;28;20123;-76
2022/04/18 03:29:37;;;;;;;11.17;5.23;;;;;;;15.43;62.49;100417.44;5068131;28;20076;-77
2022/04/18 03:32:10;;;;;;;13.33;5.13;;;;;;;15.31;62.77;100407.53;5070219;28;20517;-77
2022/04/18 03:34:37;;;;;;;20.70;5.97;;;;;;;15.25;62.75;100406.00;5065805;28;20131;-78
2022/04/18 03:39:54;;;;;;;11.77;5.63;;;;;;;15.31;62.88;100413.16;5072036;28;20465;-77
2022/04/18 03:42:29;;;;;;;17.57;6.03;;;;;;;15.37;62.80;100422.31;5070133;28;20044;-77
2022/04/18 03:45:03;;;;;;;18.07;5.53;;;;;;;15.33;62.55;100419.31;5054405;28;20044;-77
2022/04/18 03:47:30;;;;;;;14.40;5.30;;;;;;;15.16;62.57;100393.81;5072169;28;20503;-78
2022/04/18 03:49:57;;;;;;;15.60;5.63;;;;;;;15.35;62.79;100430.25;5071529;28;20102;-78
2022/04/18 03:52:25;;;;;;;15.00;5.27;;;;;;;15.09;62.72;100385.81;5066421;28;20080;-78
2022/04/18 03:54:52;;;;;;;11.57;5.97;;;;;;;14.99;62.61;100371.16;5071190;28;20144;-77
2022/04/18 03:57:19;;;;;;;13.83;5.60;;;;;;;15.23;62.80;100416.72;5069769;28;20145;-78
2022/04/18 03:59:47;;;;;;;17.43;6.43;;;;;;;15.14;62.78;100408.22;5071410;28;20048;-78
2022/04/18 04:02:13;;;;;;;16.03;5.87;;;;;;;15.05;62.75;100410.09;5059287;28;20095;-78
2022/04/18 04:04:41;;;;;;;14.10;5.53;;;;;;;14.83;62.90;100373.44;5065806;28;20129;-76
2022/04/18 04:07:08;;;;;;;22.63;5.83;;;;;;;15.23;63.11;100439.22;5070857;28;20126;-81
2022/04/18 04:09:36;;;;;;;16.50;5.83;;;;;;;15.21;62.90;100430.25;5069746;28;20048;-83
2022/04/18 04:12:05;;;;;;;11.53;5.57;;;;;;;15.00;62.84;100395.31;5051993;28;20051;-82
2022/04/18 04:14:33;;;;;;;17.33;5.93;;;;;;;15.02;62.81;100405.09;5071799;28;20075;-81
2022/04/18 04:17:00;;;;;;;9.10;4.90;;;;;;;14.98;62.89;100397.59;5066696;28;20551;-82
2022/04/18 04:19:27;;;;;;;18.13;5.73;;;;;;;15.07;62.84;100415.38;5067980;28;20127;-82
2022/04/18 04:21:54;;;;;;;17.50;5.73;;;;;;;15.06;62.79;100424.97;5071475;28;20084;-77
2022/04/18 04:24:21;;;;;;;16.80;6.50;;;;;;;15.15;62.86;100440.81;5070964;28;20480;-85
2022/04/18 04:26:49;;;;;;;11.43;6.00;;;;;;;15.13;63.00;100431.84;5069379;28;20124;-83
2022/04/18 04:29:17;;;;;;;16.80;6.10;;;;;;;15.11;63.12;100425.72;5073553;28;20103;-83
2022/04/18 04:31:44;;;;;;;13.50;6.63;;;;;;;15.02;63.06;100416.34;5058238;28;20098;-75
2022/04/18 04:34:12;;;;;;;14.90;6.53;;;;;;;15.10;63.08;100429.66;5071599;28;20076;-75
2022/04/18 04:36:40;;;;;;;15.05;5.60;;;;;;;15.00;62.94;100420.59;5070612;28;20534;-75
2022/04/18 04:39:08;;;;;;;14.63;5.60;;;;;;;14.87;62.89;100402.59;5066398;28;20044;-77
2022/04/18 04:41:36;;;;;;;14.13;6.17;;;;;;;15.04;62.94;100436.56;5070487;28;20135;-77
2022/04/18 04:44:05;;;;;;;11.77;5.17;;;;;;;14.96;62.87;100422.38;5070762;28;20514;-77
2022/04/18 04:46:32;;;;;;;10.70;5.63;;;;;;;14.82;62.76;100411.97;5070205;28;20071;-80
2022/04/18 04:48:59;;;;;;;12.23;5.00;;;;;;;14.90;62.78;100433.72;5071556;28;20511;-81
2022/04/18 04:51:26;;;;;;;10.93;4.90;;;;;;;14.79;62.62;100411.75;5073114;28;20040;-81
2022/04/18 04:53:53;;;;;;;19.67;6.20;;;;;;;14.72;62.70;100406.56;5071728;28;20108;-80
2022/04/18 04:56:22;;;;;;;15.17;5.13;;;;;;;14.73;62.69;100408.22;5044861;28;20067;-81
2022/04/18 04:58:49;;;;;;;18.37;5.97;;;;;;;14.85;62.68;100431.03;5052462;28;20076;-81
2022/04/18 05:01:16;;;;;;;15.73;5.53;;;;;;;14.87;62.75;100425.09;5053044;28;20294;-81
2022/04/18 05:03:43;;;;;;;20.17;6.53;;;;;;;14.69;62.76;100412.81;5051261;28;20052;-81
2022/04/18 05:06:11;;;;;;;14.60;5.70;;;;;;;14.67;62.54;100415.94;5056832;28;20147;-79
2022/04/18 05:08:38;;;;;;;16.03;6.07;;;;;;;14.65;62.78;100415.41;5053806;28;20159;-80
2022/04/18 05:11:05;;;;;;;11.87;5.13;;;;;;;14.69;62.93;100426.84;5053211;28;20076;-78
2022/04/18 05:13:31;;;;;;;17.87;6.03;;;;;;;14.50;62.96;100403.63;5055055;28;20437;-77
2022/04/18 05:15:58;;;;;;;18.63;7.43;;;;;;;14.50;63.00;100403.63;5050206;28;20411;-76
2022/04/18 05:18:27;;;;;;;17.60;6.47;;;;;;;14.46;63.09;100404.22;5053851;28;20080;-76
2022/04/18 05:20:53;;;;;;;14.33;6.97;;;;;;;14.39;62.96;100392.56;5048610;28;20142;-78
2022/04/18 05:23:20;;;;;;;17.17;6.30;;;;;;;14.22;63.16;100367.03;5051927;28;20420;-77
2022/04/18 05:25:47;;;;;;;15.77;5.57;;;;;;;14.63;63.32;100428.09;5051612;28;20405;-77
2022/04/18 05:28:14;;;;;;;11.87;6.47;;;;;;;14.62;63.24;100418.00;5047720;28;20053;-76
2022/04/18 05:30:41;;;;;;;11.77;5.67;;;;;;;14.34;63.13;100377.78;5048576;28;20135;-81
2022/04/18 05:33:08;;;;;;;19.87;5.97;;;;;;;14.61;63.11;100416.34;5055794;28;20135;-85
2022/04/18 05:35:35;;;;;;;20.00;7.07;;;;;;;14.68;63.13;100428.00;5055290;28;20172;-81
2022/04/18 05:38:02;;;;;;;9.70;5.23;;;;;;;14.44;62.97;100384.03;5054425;28;20077;-79
2022/04/18 05:40:29;;;;;;;13.43;5.83;;;;;;;14.67;63.10;100420.72;5051131;28;20080;-83
2022/04/18 05:42:56;;;;;;;16.63;5.70;;;;;;;14.62;62.97;100416.03;5049682;28;20073;-78
2022/04/18 05:45:23;;;;;;;13.50;5.57;;;;;;;14.44;63.22;100389.66;5051068;28;20044;-76
2022/04/18 05:47:50;;;;;;;11.17;6.00;;;;;;;14.23;63.04;100349.06;5051743;28;20049;-74
2022/04/18 05:50:17;;;;;;;16.13;5.80;;;;;;;14.55;63.37;100411.97;5046493;28;20053;-73
2022/04/18 05:52:43;;;;;;;12.97;5.83;;;;;;;14.49;63.26;100396.31;5051120;28;20139;-76
2022/04/18 05:55:10;;;;;;;10.27;6.13;;;;;;;14.51;63.26;100402.50;5049265;28;20149;-73
2022/04/18 05:57:37;;;;;;;15.53;6.00;;;;;;;14.65;63.06;100423.00;5069809;28;20143;-78
2022/04/18 06:00:05;;;;;;;10.83;5.77;;;;;;;14.65;63.01;100421.03;5066918;28;20119;-79
2022/04/18 06:02:32;;;;;;;15.80;6.13;;;;;;;14.29;63.00;100366.63;5066692;28;20079;-79
2022/04/18 06:05:04;;;;;;;15.97;7.67;;;;;;;14.57;63.10;100412.50;5061165;28;20052;-79
2022/04/18 06:07:32;;;;;;;15.33;6.30;;;;;;;14.61;63.19;100417.19;5056720;28;20076;-78
2022/04/18 06:09:59;;;;;;;12.57;6.87;;;;;;;14.65;63.19;100426.66;5069790;28;20048;-79
2022/04/18 06:12:26;;;;;;;13.43;6.27;;;;;;;14.57;63.40;100404.06;5065796;28;20567;-79
2022/04/18 06:14:53;;;;;;;13.27;5.67;;;;;;;14.65;63.30;100417.38;5070055;28;20087;-78
2022/04/18 06:17:20;;;;;;;12.77;6.17;;;;;;;14.60;63.24;100414.69;5074734;28;20181;-79
2022/04/18 06:19:49;;;;;;;15.07;7.27;;;;;;;14.73;63.10;100430.69;5072801;28;20132;-80
2022/04/18 06:22:16;;;;;;;13.77;7.57;;;;;;;14.79;63.38;100423.84;5069387;28;20498;-78
2022/04/18 06:24:43;;;;;;;15.63;5.77;;;;;;;14.56;63.06;100369.50;5069990;28;20132;-79
2022/04/18 06:27:10;;;;;;;12.93;5.97;;;;;;;15.06;63.28;100424.97;5064203;28;20539;-79
2022/04/18 06:29:37;;;;;;;16.63;6.53;;;;;;;15.27;63.28;100440.25;5059024;28;20083;-78
2022/04/18 06:32:04;;;;;;;13.00;5.30;;;;;;;15.28;63.19;100412.97;5068650;28;20140;-79
2022/04/18 06:34:31;;;;;;;15.93;6.43;;;;;;;15.36;63.20;100421.50;5064924;28;20555;-79
2022/04/18 06:36:58;;;;;;;16.90;6.00;;;;;;;15.58;63.35;100428.31;5056925;28;20131;-79
2022/04/18 06:39:25;;;;;;;10.47;5.70;;;;;;;15.71;63.49;100433.09;5070877;28;20076;-78
2022/04/18 06:41:52;;;;;;;14.83;6.30;;;;;;;15.84;63.38;100434.22;5070527;28;20090;-79
2022/04/18 06:44:19;;;;;;;12.20;6.90;;;;;;;15.94;63.38;100430.31;5073339;28;20045;-79
2022/04/18 06:46:46;;;;;;;12.30;6.07;;;;;;;16.02;63.41;100421.91;5073087;28;20044;-79
2022/04/18 06:49:12;;;;;;;9.50;5.00;;;;;;;16.33;63.02;100444.50;5054947;28;20088;-79
2022/04/18 06:51:39;;;;;;;11.63;5.25;;;;;;;16.49;62.98;100447.75;5055917;28;20079;-80
2022/04/18 06:54:06;;;;;;;10.80;5.50;;;;;;;16.60;62.63;100437.03;5072206;28;20356;-81
2022/04/18 06:59:19;;;;;;;19.13;8.18;;;;;;;16.94;62.33;100444.00;5065019;28;20082;-78
2022/04/18 07:01:46;;;;;;;14.07;6.00;;;;;;;16.95;62.05;100423.94;5055287;28;20076;-79
2022/04/18 07:04:13;;;;;;;11.63;6.30;;;;;;;17.20;61.49;100446.94;5070430;28;20048;-78
2022/04/18 07:06:40;;;;;;;8.38;4.63;;;;;;;17.45;61.34;100453.78;5072244;28;20140;-79
2022/04/18 07:09:08;;;;;;;10.20;5.53;;;;;;;17.47;60.63;100443.84;5054506;28;20520;-79
2022/04/18 07:11:34;;;;;;;8.65;4.90;;;;;;;17.76;59.93;100454.50;5047944;28;20088;-79
2022/04/18 07:14:02;;;;;;;12.40;4.65;;;;;;;17.81;58.94;100436.59;5064903;28;20083;-79
2022/04/18 07:16:30;;;;;;;8.88;6.07;;;;;;;18.07;58.90;100455.50;5054428;28;20124;-79
2022/04/18 07:18:58;;;;;;;8.32;4.72;;;;;;;18.17;58.06;100438.22;5069566;28;20092;-78
2022/04/18 07:21:27;;;;;;;8.60;4.35;;;;;;;18.28;57.43;100433.03;5068300;28;20106;-77
2022/04/18 07:23:54;;;;;;;8.07;4.13;;;;;;;18.41;57.11;100435.66;5060539;28;20107;-79
2022/04/18 07:26:21;;;;;;;6.82;4.75;;;;;;;18.51;56.95;100448.63;5055410;28;20080;-79
2022/04/18 07:28:48;;;;;;;7.28;4.15;;;;;;;18.59;56.59;100442.09;5058716;28;20080;-78
2022/04/18 07:31:15;;;;;;;9.25;5.30;;;;;;;18.89;56.37;100453.53;5068240;28;20088;-77
2022/04/18 07:33:42;;;;;;;6.05;4.35;;;;;;;18.72;55.91;100402.69;5066353;28;20052;-78
2022/04/18 07:36:09;;;;;;;7.43;5.00;;;;;;;19.17;55.38;100443.38;5064435;28;20124;-77
2022/04/18 07:38:51;;;;;;;8.70;5.85;;;;;;;19.25;54.75;100438.88;5083014;28;20044;-78
2022/04/18 07:41:29;;;;;;;10.95;6.45;;;;;;;19.32;54.63;100432.66;5072576;28;20071;-78
2022/04/18 07:43:57;;;;;;;10.88;5.57;;;;;;;19.63;53.91;100461.47;5047264;28;20154;-76
2022/04/18 07:46:24;;;;;;;12.80;5.95;;;;;;;19.78;53.56;100453.53;5063259;28;20800;-78
2022/04/18 07:48:52;;;;;;;8.35;4.80;;;;;;;19.90;53.23;100450.78;5069248;28;20139;-78
2022/04/18 07:51:34;;;;;;;7.40;4.70;;;;;;;20.02;52.68;100453.66;5037678;28;20232;-78
2022/04/18 07:54:03;;;;;;;6.25;4.10;;;;;;;19.99;52.33;100443.00;5056209;28;20106;-77
2022/04/18 07:56:30;;;;;;;7.97;4.68;;;;;;;20.25;52.44;100464.63;5035272;28;20060;-77
2022/04/18 07:58:57;;;;;;;8.88;4.88;;;;;;;20.39;51.93;100465.16;5059917;28;20569;-78
2022/04/18 08:01:29;;;;;;;10.90;5.50;;;;;;;20.54;51.64;100466.53;5062349;28;20147;-79
2022/04/18 08:03:59;;;;;;;8.85;4.47;;;;;;;20.54;51.17;100441.00;5058345;28;20053;-77
2022/04/18 08:06:27;;;;;;;7.25;4.60;;;;;;;20.75;51.11;100461.66;5057963;28;20084;-79
2022/04/18 08:08:54;;;;;;;8.35;4.88;;;;;;;21.00;50.83;100467.34;5059390;28;20056;-79
2022/04/18 08:11:21;;;;;;;10.32;4.50;;;;;;;21.04;50.24;100452.09;5056351;28;20060;-79
2022/04/18 08:13:51;;;;;;;9.95;5.32;;;;;;;21.28;49.54;100445.56;5042852;28;20057;-77
2022/04/18 08:16:18;;;;;;;7.60;4.45;;;;;;;21.38;49.53;100441.47;5056002;28;20591;-79
2022/04/18 08:18:46;;;;;;;9.18;4.78;;;;;;;21.58;49.18;100472.94;5054492;28;20415;-80
2022/04/18 08:21:17;;;;;;;8.43;4.78;;;;;;;21.68;48.59;100466.78;5059067;28;20056;-78
2022/04/18 08:23:45;;;;;;;12.02;6.68;;;;;;;21.92;48.68;100469.56;5055810;28;20129;-79
2022/04/18 08:26:12;;;;;;;6.45;4.57;;;;;;;22.07;47.78;100472.81;5056658;28;20053;-77
2022/04/18 08:28:40;;;;;;;7.13;4.53;;;;;;;22.25;47.71;100477.03;5043387;28;20167;-78
2022/04/18 08:31:07;;;;;;;9.48;5.22;;;;;;;22.28;47.02;100456.41;5044306;28;20751;-77
2022/04/18 08:33:35;;;;;;;7.03;4.25;;;;;;;22.54;46.59;100472.19;5063711;28;20883;-77
2022/04/18 08:36:03;;;;;;;6.78;4.50;;;;;;;22.78;46.07;100466.34;5056533;28;20072;-77
2022/04/18 08:38:30;;;;;;;5.43;3.30;;;;;;;23.10;45.57;100455.81;5057270;28;20056;-79
2022/04/18 08:41:01;;;;;;;8.98;4.22;;;;;;;23.58;44.53;100442.34;5058288;28;20138;-79
2022/04/18 08:43:28;;;;;;;5.13;3.30;;;;;;;24.24;43.75;100477.66;5059787;28;20072;-78
2022/04/18 08:45:56;;;;;;;6.53;4.10;;;;;;;24.55;43.12;100467.31;5037318;28;20300;-78
2022/04/18 08:53:59;;;;;;;6.22;3.60;;;;;;;25.55;41.98;100477.69;5054027;28;20140;-78
2022/04/18 08:56:27;;;;;;;3.95;2.60;;;;;;;25.97;40.99;100473.81;5054672;28;20200;-78
2022/04/18 08:58:54;;;;;;;3.78;2.60;;;;;;;26.22;40.14;100475.00;5060404;28;20048;-79
2022/04/18 09:01:21;;;;;;;3.78;2.58;;;;;;;26.29;39.64;100471.41;5050919;28;20050;-79
2022/04/18 09:03:49;;;;;;;4.82;3.17;;;;;;;26.46;39.82;100458.50;5051438;28;20044;-79
2022/04/18 09:06:16;;;;;;;4.07;3.38;;;;;;;26.82;38.79;100476.13;5053453;28;20059;-79
2022/04/18 09:08:54;;;;;;;4.18;2.75;;;;;;;26.98;38.41;100475.88;5056792;28;20114;-79
2022/04/18 09:11:34;;;;;;;3.80;2.50;;;;;;;27.14;38.33;100479.31;5054567;28;20084;-79
2022/04/18 09:14:12;;;;;;;2.72;2.15;;;;;;;27.38;37.53;100472.16;5040007;28;20144;-78
2022/04/18 09:16:43;;;;;;;4.70;2.85;;;;;;;27.56;37.01;100476.00;5054562;28;20139;-79
2022/04/18 09:19:16;;;;;;;6.97;4.45;;;;;;;27.81;36.71;100479.06;5053658;28;20100;-79
2022/04/18 09:21:43;;;;;;;3.20;2.60;;;;;;;27.92;36.06;100482.00;5056067;28;20202;-79
2022/04/18 09:24:34;;;;;;;5.72;2.78;;;;;;;27.98;35.75;100477.53;5063270;28;20080;-79
2022/04/18 09:27:14;;;;;;;11.48;4.25;;;;;;;27.74;35.65;100409.31;5052904;28;20135;-79
2022/04/18 09:29:40;;;;;;;;;;;;;;;28.20;37.84;100489.13;5063012;28;20139;-79
2022/04/18 09:32:12;;;;;;;3.15;2.50;;;;;;;28.43;35.73;100486.81;5063131;28;19978;-79
2022/04/18 09:34:40;;;;;;;4.40;2.53;;;;;;;28.35;34.98;100453.50;5065615;28;20044;-79
2022/04/18 09:37:14;;;;;;;4.50;2.90;;;;;;;28.72;34.68;100486.91;5059868;28;20053;-79
2022/04/18 09:39:43;;;;;;;4.57;3.25;;;;;;;28.67;34.13;100464.31;5058407;28;20588;-79
2022/04/18 09:42:11;;;;;;;5.40;3.22;;;;;;;28.86;33.92;100463.94;5060272;28;20063;-79
2022/04/18 09:44:38;;;;;;;5.63;2.50;;;;;;;28.99;33.44;100479.59;5058652;28;20135;-79
2022/04/18 09:47:05;;;;;;;5.15;2.55;;;;;;;29.21;33.23;100486.19;5058743;28;20435;-79
2022/04/18 09:49:39;;;;;;;4.95;3.13;;;;;;;29.24;33.07;100473.88;5059492;28;20056;-79
2022/04/18 09:52:09;;;;;;;3.15;2.45;;;;;;;29.39;32.73;100480.44;5055743;28;20190;-79
2022/04/18 09:54:43;;;;;;;4.43;2.78;;;;;;;29.41;32.82;100460.72;5056979;28;20049;-77
2022/04/18 09:57:21;;;;;;;3.63;2.45;;;;;;;29.72;32.21;100481.28;5059170;28;20094;-79
2022/04/18 09:59:52;;;;;;;4.60;2.65;;;;;;;29.82;31.79;100480.44;5057590;28;20133;-79
2022/04/18 10:02:20;;;;;;;4.18;2.55;;;;;;;29.85;32.28;100473.03;5042064;28;20220;-79
2022/04/18 10:04:47;;;;;;;6.80;2.53;;;;;;;29.84;31.44;100466.44;5056365;28;20139;-79
2022/04/18 10:07:14;;;;;;;5.38;2.20;;;;;;;30.15;31.15;100490.59;5059002;28;20066;-80
2022/04/18 10:09:42;;;;;;;3.03;2.40;;;;;;;30.32;31.37;100494.69;5038361;28;20191;-78
2022/04/18 10:12:11;;;;;;;4.15;2.35;;;;;;;30.48;31.06;100476.94;5056619;28;20558;-79
2022/04/18 10:14:39;;;;;;;4.68;3.10;;;;;;;30.59;31.09;100476.88;5057413;28;20135;-79
2022/04/18 10:17:08;;;;;;;7.47;4.32;;;;;;;30.57;31.29;100473.63;5064324;28;20052;-79
2022/04/18 10:19:53;;;;;;;4.93;2.90;;;;;;;30.56;31.05;100486.38;5055008;28;20485;-79
2022/04/18 10:22:59;;;;;;;4.30;3.10;;;;;;;30.26;31.45;100493.50;5040274;28;20045;-79
2022/04/18 10:25:47;;;;;;;4.82;3.45;;;;;;;30.29;31.46;100486.06;5058764;28;21345;-79
2022/04/18 10:28:23;;;;;;;5.15;3.67;;;;;;;30.31;31.14;100446.16;5061496;28;20049;-79
2022/04/18 10:30:56;;;;;;;4.38;3.13;;;;;;;30.68;30.84;100457.91;5067311;28;20123;-79
2022/04/18 10:33:23;;;;;;;4.10;3.03;;;;;;;30.75;30.39;100438.91;5066449;28;20063;-78
2022/04/18 10:35:54;;;;;;;3.97;2.67;;;;;;;31.10;30.55;100466.72;5071055;28;20044;-78
2022/04/18 10:38:25;;;;;;;7.45;3.72;;;;;;;31.21;30.01;100476.09;5066605;28;20052;-78
2022/04/18 10:44:08;;;;;;;5.15;4.00;;;;;;;31.05;31.34;100470.88;5073743;28;20075;-78
2022/04/18 10:46:39;;;;;;;6.57;4.32;;;;;;;31.06;30.72;100483.22;5060926;28;20139;-80
2022/04/18 10:49:20;;;;;;;3.90;3.22;;;;;;;31.04;30.71;100448.19;5064085;28;20121;-78
2022/04/18 10:51:50;;;;;;;4.07;3.10;;;;;;;31.26;30.26;100463.28;5043276;28;20202;-78
2022/04/18 10:54:30;;;;;;;9.98;3.65;;;;;;;31.02;31.05;100439.19;5062831;28;20139;-79
2022/04/18 10:57:00;;;;;;;5.07;3.30;;;;;;;31.79;29.92;100465.69;5059946;28;20048;-78
2022/04/18 10:59:30;;;;;;;5.65;2.78;;;;;;;32.65;28.87;100456.06;5060988;28;20057;-78
2022/04/18 11:02:01;;;;;;;4.50;3.03;;;;;;;33.31;28.32;100457.53;5065949;28;20044;-79
2022/04/18 11:04:47;;;;;;;4.70;2.40;;;;;;;33.35;29.02;100438.00;5080421;28;20382;-78
2022/04/18 11:07:14;;;;;;;4.18;2.88;;;;;;;32.86;28.45;100396.25;5084437;28;20503;-80
2022/04/18 11:09:45;;;;;;;5.28;3.10;;;;;;;32.92;28.49;100458.13;5079835;28;20115;-78
2022/04/18 11:12:20;;;;;;;4.55;2.55;;;;;;;32.80;28.73;100445.91;5077520;28;20052;-78
2022/04/18 11:14:51;;;;;;;4.60;2.30;;;;;;;32.72;28.89;100418.34;5072527;28;20060;-78
2022/04/18 11:17:37;;;;;;;5.80;2.33;;;;;;;32.18;30.19;100414.53;5071524;28;20523;-78
2022/04/18 11:20:27;;;;;;;5.38;3.17;;;;;;;32.14;30.08;100440.59;5067411;28;20079;-79
2022/04/18 11:23:33;;;;;;;7.47;2.63;;;;;;;32.30;30.13;100434.19;5066738;28;20075;-79
2022/04/18 11:26:02;;;;;;;4.38;2.70;;;;;;;32.41;29.54;100425.38;4972223;28;20047;-78
2022/04/18 11:28:39;;;;;;;6.00;2.55;;;;;;;32.27;29.38;100418.53;4974607;28;20516;-78
2022/04/18 11:31:16;;;;;;;6.47;2.90;;;;;;;32.28;29.23;100407.81;5028259;28;20041;-78
2022/04/18 11:33:43;;;;;;;3.15;2.00;;;;;;;32.48;28.83;100428.19;5070391;28;20044;-78
2022/04/18 11:36:12;;;;;;;6.30;2.30;;;;;;;32.31;29.28;100384.63;5062870;28;20475;-79
2022/04/18 11:38:38;;;;;;;4.35;2.63;;;;;;;32.48;28.95;100373.25;5057059;28;20056;-78
2022/04/18 11:41:12;;;;;;;4.60;2.53;;;;;;;32.86;29.18;100402.03;5062064;28;20049;-79
2022/04/18 11:43:40;;;;;;;5.25;2.28;;;;;;;32.92;28.87;100417.63;5061474;28;22753;-79
2022/04/18 11:46:09;;;;;;;8.07;2.97;;;;;;;32.68;28.87;100391.53;5047148;28;20135;-78